PWSweather.com
Personal Weather Stations
Station Observations
JEDRZEJOW
Kielce, JedrzejowPL 28-300

KielceJedrzejowPL 28-300

Lat: 50.64416885, Lon: 20.30450058

Elevation: 790

Station Type: WH1080

Latest ConditionsUpdated 4:00:00 PM GMT+01:01 Wednesday, Nov 21, 2018
Currently Today's Max Today's Min Today's Average
Temperature 33.4°F0.8°C 33.8°F1.0°C 32.4°F0.2°C 33.1°F0.6°C
Dew Point 26.7°F-2.9°C 28.5°F-1.9°C 24.5°F-4.2°C 27.3°F-2.6°C
Winds 6.9 mph ENE11.1 kmh ENE 12.1 mph -19.5 kmh - - 9.5 mph 15.3 kmh
Wind Gusts 13.0 mph20.9 kmh 24.4 mph39.3 kmh - -
Humidity 76% 83% 71% 79%
Pressure 30.17 in1021.7 mb 30.17 in1021.7 mb 30.07 in1018.3 mb -
Precipitation - 0.01 in0.3 mm - -
Hour Temp Dew Point Humidity Winds Wind Gusts Pressure Precip Precip Rate Daily Precip Total
04:00 PM 33.4°F0.8°C 26.7°F-2.9°C 76% 6.9 mph ENE11.1 kmh ENE 13.0 mph20.9 kmh 30.17 in1021.7 mb 0.00 in0.0 mm 0.00 in0.0 mm 0.01 in0.3 mm
03:45 PM 33.6°F0.9°C 26.9°F-2.8°C 76% 8.2 mph E13.2 kmh E 13.6 mph21.9 kmh 30.17 in1021.7 mb 0.00 in0.0 mm 0.00 in0.0 mm 0.01 in0.3 mm
03:30 PM 33.6°F0.9°C 26.9°F-2.8°C 76% 9.0 mph ENE14.5 kmh ENE 13.0 mph20.9 kmh 30.16 in1021.3 mb 0.00 in0.0 mm 0.00 in0.0 mm 0.01 in0.3 mm
03:15 PM 33.8°F1.0°C 27.0°F-2.8°C 76% 7.9 mph E12.7 kmh E 11.4 mph18.3 kmh 30.16 in1021.3 mb 0.00 in0.0 mm 0.00 in0.0 mm 0.01 in0.3 mm
03:00 PM 33.8°F1.0°C 27.0°F-2.8°C 76% 8.5 mph E13.7 kmh E 12.1 mph19.5 kmh 30.16 in1021.3 mb 0.00 in0.0 mm 0.00 in0.0 mm 0.01 in0.3 mm
02:45 PM 33.8°F1.0°C 27.4°F-2.6°C 77% 7.9 mph E12.7 kmh E 12.1 mph19.5 kmh 30.16 in1021.3 mb 0.00 in0.0 mm 0.00 in0.0 mm 0.01 in0.3 mm
02:30 PM 33.8°F1.0°C 27.4°F-2.6°C 77% 9.0 mph E14.5 kmh E 13.0 mph20.9 kmh 30.15 in1021.0 mb 0.00 in0.0 mm 0.00 in0.0 mm 0.01 in0.3 mm
02:15 PM 33.8°F1.0°C 27.4°F-2.6°C 77% 7.9 mph E12.7 kmh E 13.0 mph20.9 kmh 30.16 in1021.3 mb 0.00 in0.0 mm 0.00 in0.0 mm 0.01 in0.3 mm
02:00 PM 33.8°F1.0°C 27.7°F-2.4°C 78% 8.4 mph ENE13.5 kmh ENE 14.5 mph23.3 kmh 30.16 in1021.3 mb 0.00 in0.0 mm 0.00 in0.0 mm 0.01 in0.3 mm
01:45 PM 33.6°F0.9°C 27.5°F-2.5°C 78% 9.3 mph ENE15.0 kmh ENE 14.5 mph23.3 kmh 30.15 in1021.0 mb 0.00 in0.0 mm 0.00 in0.0 mm 0.01 in0.3 mm
01:30 PM 33.6°F0.9°C 27.5°F-2.5°C 78% 10.5 mph ENE16.9 kmh ENE 15.9 mph25.6 kmh 30.15 in1021.0 mb 0.00 in0.0 mm 0.00 in0.0 mm 0.01 in0.3 mm
01:15 PM 33.6°F0.9°C 27.8°F-2.3°C 79% 9.7 mph ENE15.6 kmh ENE 15.2 mph24.5 kmh 30.15 in1021.0 mb 0.00 in0.0 mm 0.00 in0.0 mm 0.01 in0.3 mm
01:00 PM 33.4°F0.8°C 27.9°F-2.3°C 80% 9.6 mph E15.4 kmh E 13.6 mph21.9 kmh 30.15 in1021.0 mb 0.00 in0.0 mm 0.00 in0.0 mm 0.01 in0.3 mm
12:45 PM 33.4°F0.8°C 27.9°F-2.3°C 80% 8.8 mph E14.2 kmh E 13.6 mph21.9 kmh 30.15 in1021.0 mb 0.00 in0.0 mm 0.00 in0.0 mm 0.01 in0.3 mm
12:30 PM 33.3°F0.7°C 27.8°F-2.3°C 80% 9.5 mph ENE15.3 kmh ENE 13.6 mph21.9 kmh 30.16 in1021.3 mb 0.00 in0.0 mm 0.00 in0.0 mm 0.01 in0.3 mm
12:15 PM 33.1°F0.6°C 27.9°F-2.3°C 81% 9.6 mph ENE15.4 kmh ENE 15.9 mph25.6 kmh 30.16 in1021.3 mb 0.00 in0.0 mm 0.00 in0.0 mm 0.01 in0.3 mm
12:00 PM 32.9°F0.5°C 27.7°F-2.4°C 81% 9.0 mph ENE14.5 kmh ENE 14.5 mph23.3 kmh 30.15 in1021.0 mb 0.00 in0.0 mm 0.00 in0.0 mm 0.01 in0.3 mm
11:45 AM 32.7°F0.4°C 27.8°F-2.3°C 82% 10.0 mph ENE16.1 kmh ENE 15.9 mph25.6 kmh 30.16 in1021.3 mb 0.00 in0.0 mm 0.00 in0.0 mm 0.01 in0.3 mm
11:30 AM 32.7°F0.4°C 28.1°F-2.2°C 83% 8.3 mph ENE13.4 kmh ENE 13.6 mph21.9 kmh 30.16 in1021.3 mb 0.01 in0.3 mm 0.00 in0.0 mm 0.01 in0.3 mm
11:15 AM 32.5°F0.3°C 28.0°F-2.2°C 83% 9.6 mph E15.4 kmh E 14.5 mph23.3 kmh 30.16 in1021.3 mb 0.01 in0.3 mm 0.00 in0.0 mm 0.01 in0.3 mm
11:00 AM 32.5°F0.3°C 28.0°F-2.2°C 83% 8.3 mph ENE13.4 kmh ENE 12.1 mph19.5 kmh 30.16 in1021.3 mb 0.01 in0.3 mm 0.00 in0.0 mm 0.01 in0.3 mm
10:45 AM 32.7°F0.4°C 27.8°F-2.3°C 82% 9.3 mph ENE15.0 kmh ENE 13.6 mph21.9 kmh 30.16 in1021.3 mb 0.01 in0.3 mm 0.04 in1.0 mm 0.01 in0.3 mm
10:30 AM 32.7°F0.4°C 27.8°F-2.3°C 82% 8.9 mph ENE14.3 kmh ENE 14.5 mph23.3 kmh 30.15 in1021.0 mb 0.00 in0.0 mm 0.00 in0.0 mm 0.00 in0.0 mm
10:15 AM 32.9°F0.5°C 27.7°F-2.4°C 81% 8.9 mph ENE14.3 kmh ENE 13.6 mph21.9 kmh 30.15 in1021.0 mb 0.00 in0.0 mm 0.00 in0.0 mm 0.00 in0.0 mm
10:00 AM 33.1°F0.6°C 27.6°F-2.4°C 80% 8.2 mph ENE13.2 kmh ENE 13.6 mph21.9 kmh 30.15 in1021.0 mb 0.00 in0.0 mm 0.00 in0.0 mm 0.00 in0.0 mm
09:45 AM 33.1°F0.6°C 27.6°F-2.4°C 80% 8.3 mph E13.4 kmh E 12.1 mph19.5 kmh 30.15 in1021.0 mb 0.00 in0.0 mm 0.00 in0.0 mm 0.00 in0.0 mm
09:30 AM 33.1°F0.6°C 27.6°F-2.4°C 80% 7.7 mph E12.4 kmh E 12.1 mph19.5 kmh 30.14 in1020.7 mb 0.00 in0.0 mm 0.00 in0.0 mm 0.00 in0.0 mm
09:15 AM 33.1°F0.6°C 27.6°F-2.4°C 80% 9.4 mph E15.1 kmh E 13.6 mph21.9 kmh 30.14 in1020.7 mb 0.00 in0.0 mm 0.00 in0.0 mm 0.00 in0.0 mm
09:00 AM 32.9°F0.5°C 27.4°F-2.6°C 80% 9.3 mph E15.0 kmh E 16.8 mph27.0 kmh 30.14 in1020.7 mb 0.00 in0.0 mm 0.00 in0.0 mm 0.00 in0.0 mm
08:45 AM 32.9°F0.5°C 27.7°F-2.4°C 81% 9.1 mph E14.6 kmh E 15.2 mph24.5 kmh 30.14 in1020.7 mb 0.00 in0.0 mm 0.00 in0.0 mm 0.00 in0.0 mm
08:30 AM 32.9°F0.5°C 27.7°F-2.4°C 81% 8.6 mph E13.8 kmh E 15.2 mph24.5 kmh 30.12 in1020.0 mb 0.00 in0.0 mm 0.00 in0.0 mm 0.00 in0.0 mm
08:15 AM 32.9°F0.5°C 27.7°F-2.4°C 81% 11.0 mph E17.7 kmh E 17.4 mph28.0 kmh 30.11 in1019.6 mb 0.00 in0.0 mm 0.00 in0.0 mm 0.00 in0.0 mm
08:00 AM 32.9°F0.5°C 27.7°F-2.4°C 81% 9.8 mph ENE15.8 kmh ENE 15.2 mph24.5 kmh 30.11 in1019.6 mb 0.00 in0.0 mm 0.00 in0.0 mm 0.00 in0.0 mm
07:45 AM 32.9°F0.5°C 27.7°F-2.4°C 81% 11.8 mph ENE19.0 kmh ENE 16.8 mph27.0 kmh 30.10 in1019.3 mb 0.00 in0.0 mm 0.00 in0.0 mm 0.00 in0.0 mm
07:30 AM 32.9°F0.5°C 27.7°F-2.4°C 81% 10.4 mph ENE16.7 kmh ENE 15.2 mph24.5 kmh 30.10 in1019.3 mb 0.00 in0.0 mm 0.00 in0.0 mm 0.00 in0.0 mm
07:15 AM 33.1°F0.6°C 27.9°F-2.3°C 81% 9.5 mph E15.3 kmh E 17.4 mph28.0 kmh 30.10 in1019.3 mb 0.00 in0.0 mm 0.00 in0.0 mm 0.00 in0.0 mm
07:00 AM 33.1°F0.6°C 27.9°F-2.3°C 81% 9.5 mph E15.3 kmh E 14.5 mph23.3 kmh 30.10 in1019.3 mb 0.00 in0.0 mm 0.00 in0.0 mm 0.00 in0.0 mm
06:45 AM 33.3°F0.7°C 28.1°F-2.2°C 81% 9.4 mph E15.1 kmh E 14.5 mph23.3 kmh 30.10 in1019.3 mb 0.00 in0.0 mm 0.00 in0.0 mm 0.00 in0.0 mm
06:30 AM 33.4°F0.8°C 28.2°F-2.1°C 81% 10.3 mph E16.6 kmh E 17.4 mph28.0 kmh 30.09 in1019.0 mb 0.00 in0.0 mm 0.00 in0.0 mm 0.00 in0.0 mm
06:15 AM 33.4°F0.8°C 28.2°F-2.1°C 81% 12.1 mph E19.5 kmh E 24.4 mph39.3 kmh 30.10 in1019.3 mb 0.00 in0.0 mm 0.00 in0.0 mm 0.00 in0.0 mm
06:00 AM 33.4°F0.8°C 28.2°F-2.1°C 81% 10.8 mph E17.4 kmh E 16.8 mph27.0 kmh 30.09 in1019.0 mb 0.00 in0.0 mm 0.00 in0.0 mm 0.00 in0.0 mm
05:45 AM 33.4°F0.8°C 28.2°F-2.1°C 81% 11.0 mph E17.7 kmh E 16.8 mph27.0 kmh 30.09 in1019.0 mb 0.00 in0.0 mm 0.00 in0.0 mm 0.00 in0.0 mm
05:30 AM 33.4°F0.8°C 28.2°F-2.1°C 81% 9.6 mph E15.4 kmh E 18.3 mph29.5 kmh 30.08 in1018.6 mb 0.00 in0.0 mm 0.00 in0.0 mm 0.00 in0.0 mm
05:15 AM 33.4°F0.8°C 28.5°F-1.9°C 82% 12.1 mph E19.5 kmh E 19.0 mph30.6 kmh 30.09 in1019.0 mb 0.00 in0.0 mm 0.00 in0.0 mm 0.00 in0.0 mm
05:00 AM 33.4°F0.8°C 28.5°F-1.9°C 82% 10.2 mph E16.4 kmh E 15.9 mph25.6 kmh 30.08 in1018.6 mb 0.00 in0.0 mm 0.00 in0.0 mm 0.00 in0.0 mm
04:45 AM 33.3°F0.7°C 28.4°F-2.0°C 82% 10.9 mph E17.5 kmh E 17.4 mph28.0 kmh 30.08 in1018.6 mb 0.00 in0.0 mm 0.00 in0.0 mm 0.00 in0.0 mm
04:30 AM 33.3°F0.7°C 28.4°F-2.0°C 82% 10.2 mph E16.4 kmh E 19.7 mph31.7 kmh 30.08 in1018.6 mb 0.00 in0.0 mm 0.00 in0.0 mm 0.00 in0.0 mm
04:15 AM 33.1°F0.6°C 28.2°F-2.1°C 82% 10.5 mph E16.9 kmh E 19.0 mph30.6 kmh 30.08 in1018.6 mb 0.00 in0.0 mm 0.00 in0.0 mm 0.00 in0.0 mm
04:00 AM 32.9°F0.5°C 28.0°F-2.2°C 82% 10.8 mph E17.4 kmh E 18.3 mph29.5 kmh 30.08 in1018.6 mb 0.00 in0.0 mm 0.00 in0.0 mm 0.00 in0.0 mm
03:45 AM 32.9°F0.5°C 27.7°F-2.4°C 81% 8.8 mph E14.2 kmh E 14.5 mph23.3 kmh 30.07 in1018.3 mb 0.00 in0.0 mm 0.00 in0.0 mm 0.00 in0.0 mm
03:30 AM 32.5°F0.3°C 27.4°F-2.6°C 81% 8.8 mph E14.2 kmh E 17.4 mph28.0 kmh 30.08 in1018.6 mb 0.00 in0.0 mm 0.00 in0.0 mm 0.00 in0.0 mm
03:15 AM 32.5°F0.3°C 27.4°F-2.6°C 81% 10.2 mph E16.4 kmh E 19.7 mph31.7 kmh 30.08 in1018.6 mb 0.00 in0.0 mm 0.00 in0.0 mm 0.00 in0.0 mm
03:00 AM 32.4°F0.2°C 26.9°F-2.8°C 80% 10.4 mph E16.7 kmh E 15.2 mph24.5 kmh 30.08 in1018.6 mb 0.00 in0.0 mm 0.00 in0.0 mm 0.00 in0.0 mm
02:45 AM 32.4°F0.2°C 26.9°F-2.8°C 80% 8.6 mph ENE13.8 kmh ENE 14.5 mph23.3 kmh 30.08 in1018.6 mb 0.00 in0.0 mm 0.00 in0.0 mm 0.00 in0.0 mm
02:30 AM 32.5°F0.3°C 26.4°F-3.1°C 78% 9.1 mph E14.6 kmh E 13.0 mph20.9 kmh 30.08 in1018.6 mb 0.00 in0.0 mm 0.00 in0.0 mm 0.00 in0.0 mm
02:15 AM 32.5°F0.3°C 25.8°F-3.4°C 76% 10.3 mph E16.6 kmh E 17.4 mph28.0 kmh 30.08 in1018.6 mb 0.00 in0.0 mm 0.00 in0.0 mm 0.00 in0.0 mm
02:00 AM 32.7°F0.4°C 25.7°F-3.5°C 75% 11.5 mph E18.5 kmh E 20.6 mph33.2 kmh 30.09 in1019.0 mb 0.00 in0.0 mm 0.00 in0.0 mm 0.00 in0.0 mm
01:45 AM 32.7°F0.4°C 25.0°F-3.9°C 73% 10.9 mph E17.5 kmh E 16.8 mph27.0 kmh 30.09 in1019.0 mb 0.00 in0.0 mm 0.00 in0.0 mm 0.00 in0.0 mm
01:30 AM 32.9°F0.5°C 25.2°F-3.8°C 73% 9.0 mph E14.5 kmh E 15.9 mph25.6 kmh 30.09 in1019.0 mb 0.00 in0.0 mm 0.00 in0.0 mm 0.00 in0.0 mm
01:15 AM 32.9°F0.5°C 24.9°F-3.9°C 72% 9.3 mph E15.0 kmh E 15.9 mph25.6 kmh 30.09 in1019.0 mb 0.00 in0.0 mm 0.00 in0.0 mm 0.00 in0.0 mm
01:00 AM 32.9°F0.5°C 24.9°F-3.9°C 72% 10.0 mph E16.1 kmh E 14.5 mph23.3 kmh 30.09 in1019.0 mb 0.00 in0.0 mm 0.00 in0.0 mm 0.00 in0.0 mm
12:45 AM 33.1°F0.6°C 25.0°F-3.9°C 72% 8.5 mph E13.7 kmh E 15.9 mph25.6 kmh 30.09 in1019.0 mb 0.00 in0.0 mm 0.00 in0.0 mm 0.00 in0.0 mm
12:30 AM 33.1°F0.6°C 25.0°F-3.9°C 72% 9.1 mph E14.6 kmh E 16.8 mph27.0 kmh 30.09 in1019.0 mb 0.00 in0.0 mm 0.00 in0.0 mm 0.00 in0.0 mm
12:15 AM 32.9°F0.5°C 24.5°F-4.2°C 71% 9.9 mph E15.9 kmh E 17.4 mph28.0 kmh 30.08 in1018.6 mb 0.00 in0.0 mm 0.00 in0.0 mm 0.00 in0.0 mm
12:00 AM 32.9°F0.5°C 24.5°F-4.2°C 71% 8.3 mph E13.4 kmh E 15.9 mph25.6 kmh 30.08 in1018.6 mb 0.00 in0.0 mm 0.00 in0.0 mm 0.00 in0.0 mm